Time;durP1;ratioP1;P1;durP2;ratioP2;P2;SDS_P1;SDS_P2;PMS_P1;PMS_P2;Temp;Humidity;BMP_temperature;BMP_pressure;BME280_temperature;BME280_humidity;BME280_pressure;Samples;Min_cycle;Max_cycle;Signal;HPM_P1;HPM_P2
2023/05/06 00:00:45;;;;;;;10.30;5.03;;;;;;;13.00;59.91;99864.97;4484554;32;20101;-85
2023/05/06 00:03:10;;;;;;;12.57;4.60;;;;;;;12.98;59.91;99879.87;4471220;32;20132;-85
2023/05/06 00:05:36;;;;;;;7.70;5.25;;;;;;;13.05;59.91;99876.97;4470773;32;20183;-85
2023/05/06 00:08:01;;;;;;;8.23;4.60;;;;;;;12.89;59.90;99873.25;4485601;32;20139;-85
2023/05/06 00:10:26;;;;;;;11.38;4.68;;;;;;;12.89;59.90;99868.88;4484962;31;27565;-85
2023/05/06 00:12:52;;;;;;;6.95;4.28;;;;;;;13.06;59.91;99875.22;4484799;32;30617;-85
2023/05/06 00:15:17;;;;;;;8.43;4.20;;;;;;;13.02;59.90;99869.28;4484889;32;28869;-85
2023/05/06 00:17:42;;;;;;;6.80;4.53;;;;;;;13.00;59.91;99871.06;4485247;32;20162;-86
2023/05/06 00:20:09;;;;;;;7.40;4.55;;;;;;;13.12;59.92;99867.97;4483439;32;28005;-85
2023/05/06 00:22:34;;;;;;;8.32;5.15;;;;;;;13.10;59.91;99875.03;4484297;32;20116;-85
2023/05/06 00:25:00;;;;;;;9.50;5.10;;;;;;;12.93;59.91;99880.06;4471041;32;20093;-85
2023/05/06 00:27:25;;;;;;;9.15;4.70;;;;;;;12.74;59.90;99874.69;4483824;32;20101;-86
2023/05/06 00:29:50;;;;;;;8.52;5.20;;;;;;;13.01;59.91;99882.38;4483319;32;30550;-86
2023/05/06 00:32:16;;;;;;;7.37;4.65;;;;;;;12.69;59.89;99874.03;4470730;32;20412;-86
2023/05/06 00:34:41;;;;;;;7.40;5.43;;;;;;;12.76;59.90;99877.25;4484009;32;20169;-87
2023/05/06 00:37:07;;;;;;;8.82;4.97;;;;;;;12.71;59.89;99873.97;4483932;32;20157;-86
2023/05/06 00:39:33;;;;;;;6.97;5.07;;;;;;;12.78;59.89;99873.69;4485071;32;20344;-86
2023/05/06 00:42:01;;;;;;;8.27;4.82;;;;;;;12.67;59.89;99873.25;4484025;32;20092;-86
2023/05/06 00:44:26;;;;;;;7.22;5.00;;;;;;;12.76;59.90;99879.87;4470778;32;20104;-86
2023/05/06 00:46:52;;;;;;;7.00;4.53;;;;;;;12.85;59.90;99872.53;4470678;32;20544;-86
2023/05/06 00:49:17;;;;;;;8.05;4.90;;;;;;;12.70;59.89;99873.13;4485040;32;20120;-86
2023/05/06 00:51:42;;;;;;;7.72;5.05;;;;;;;12.85;59.90;99874.31;4485870;32;20080;-86
2023/05/06 00:54:08;;;;;;;8.60;4.97;;;;;;;12.61;59.89;99870.87;4485666;32;20103;-86
2023/05/06 00:56:33;;;;;;;8.32;4.97;;;;;;;12.53;59.88;99868.53;4472508;32;20128;-86
2023/05/06 00:58:58;;;;;;;9.13;5.40;;;;;;;12.40;59.87;99866.47;4485990;32;20144;-86
2023/05/06 01:01:25;;;;;;;8.55;4.45;;;;;;;12.51;59.88;99857.31;4472528;32;24758;-86
2023/05/06 01:03:55;;;;;;;7.62;5.18;;;;;;;12.64;59.88;99859.47;4485782;32;20080;-86
2023/05/06 01:06:49;;;;;;;8.73;4.60;;;;;;;12.65;59.88;99861.16;4485984;32;20477;-86
2023/05/06 01:09:25;;;;;;;8.55;5.15;;;;;;;12.51;59.88;99864.28;4487284;31;20476;-86
2023/05/06 01:12:06;;;;;;;8.48;4.85;;;;;;;12.41;59.87;99863.78;4472833;32;20118;-86
2023/05/06 01:14:54;;;;;;;8.55;5.28;;;;;;;12.20;59.86;99859.38;4472950;32;20119;-86
2023/05/06 01:17:20;;;;;;;8.57;4.35;;;;;;;12.40;59.87;99854.25;4473366;32;20112;-86
2023/05/06 01:19:52;;;;;;;9.10;5.15;;;;;;;12.46;59.87;99853.19;4485496;32;20496;-86
2023/05/06 01:22:17;;;;;;;6.85;4.95;;;;;;;12.52;59.88;99858.16;4485973;32;20088;-86
2023/05/06 01:24:43;;;;;;;8.77;5.18;;;;;;;12.58;59.89;99850.97;4459509;32;20131;-86
2023/05/06 01:27:09;;;;;;;11.63;5.07;;;;;;;12.45;59.88;99856.69;4485677;32;20385;-87
2023/05/06 01:29:36;;;;;;;9.00;5.03;;;;;;;12.35;59.88;99853.59;4472679;32;20173;-86
2023/05/06 01:32:30;;;;;;;8.90;5.40;;;;;;;12.34;59.87;99846.69;4459727;32;20084;-86
2023/05/06 01:35:02;;;;;;;10.30;5.07;;;;;;;12.35;59.88;99848.37;4482867;32;20165;-85
2023/05/06 01:37:37;;;;;;;11.85;5.55;;;;;;;12.34;59.86;99854.50;4486902;32;20131;-85
2023/05/06 01:40:04;;;;;;;6.53;4.70;;;;;;;12.26;59.86;99841.72;4460034;32;20108;-84
2023/05/06 01:42:30;;;;;;;8.65;5.00;;;;;;;12.49;59.87;99848.69;4485638;32;20380;-84
2023/05/06 01:44:55;;;;;;;7.95;5.18;;;;;;;12.31;59.87;99845.94;4485660;32;20104;-85
2023/05/06 01:47:21;;;;;;;11.98;5.68;;;;;;;12.16;59.86;99844.75;4485606;32;20168;-85
2023/05/06 01:49:46;;;;;;;11.57;5.43;;;;;;;12.26;59.86;99841.72;4472491;32;20151;-85
2023/05/06 01:52:14;;;;;;;7.30;5.18;;;;;;;12.30;59.87;99842.44;4485222;32;20180;-85
2023/05/06 01:54:39;;;;;;;9.55;5.20;;;;;;;12.27;59.86;99845.19;4485652;32;20165;-85
2023/05/06 01:57:05;;;;;;;6.93;5.12;;;;;;;12.36;59.87;99846.63;4485131;32;20566;-85
2023/05/06 01:59:30;;;;;;;7.12;5.30;;;;;;;12.28;59.86;99844.28;4486474;32;20153;-86
2023/05/06 02:01:55;;;;;;;7.12;5.18;;;;;;;12.19;59.85;99848.09;4485146;32;20100;-85
2023/05/06 02:04:21;;;;;;;8.48;5.47;;;;;;;12.20;59.86;99855.00;4484983;32;20447;-85
2023/05/06 02:06:46;;;;;;;7.18;5.18;;;;;;;12.06;59.86;99852.03;4485076;32;20116;-85
2023/05/06 02:09:11;;;;;;;10.20;5.18;;;;;;;12.12;59.85;99851.84;4484967;32;21266;-85
2023/05/06 02:11:37;;;;;;;7.95;5.47;;;;;;;11.95;59.84;99851.59;4485483;32;20384;-85
2023/05/06 02:14:02;;;;;;;9.45;5.62;;;;;;;11.85;59.84;99851.06;4485504;32;20131;-85
2023/05/06 02:16:28;;;;;;;7.82;5.20;;;;;;;11.96;59.84;99856.75;4484974;32;20200;-85
2023/05/06 02:18:53;;;;;;;7.70;4.68;;;;;;;12.03;59.85;99849.53;4472279;32;20124;-85
2023/05/06 02:21:18;;;;;;;9.48;5.10;;;;;;;11.99;59.85;99847.97;4485270;32;20137;-84
2023/05/06 02:23:44;;;;;;;8.00;5.72;;;;;;;11.98;59.86;99847.09;4485192;32;20476;-85
2023/05/06 02:26:09;;;;;;;11.82;5.10;;;;;;;11.82;59.83;99855.53;4486629;31;20112;-85
2023/05/06 02:28:35;;;;;;;9.77;5.60;;;;;;;11.86;59.84;99858.00;4486495;32;20177;-84
2023/05/06 02:31:00;;;;;;;8.55;5.82;;;;;;;12.19;59.85;99855.91;4484707;32;30108;-84
2023/05/06 02:33:26;;;;;;;8.77;5.32;;;;;;;11.87;59.84;99857.09;4485249;32;20148;-85
2023/05/06 02:35:51;;;;;;;7.57;5.15;;;;;;;11.73;59.83;99853.22;4485300;32;20182;-87
2023/05/06 02:38:17;;;;;;;7.35;5.20;;;;;;;11.74;59.83;99855.78;4484719;32;27601;-87
2023/05/06 02:40:42;;;;;;;10.38;5.45;;;;;;;11.71;59.83;99855.03;4472205;32;20104;-86
2023/05/06 02:43:08;;;;;;;8.32;5.97;;;;;;;11.64;59.83;99857.84;4471998;32;20088;-87
2023/05/06 02:45:33;;;;;;;8.88;5.93;;;;;;;11.69;59.83;99855.94;4485776;32;29705;-86
2023/05/06 02:47:58;;;;;;;8.65;5.65;;;;;;;11.53;59.83;99853.91;4484866;32;20178;-87
2023/05/06 02:50:24;;;;;;;10.57;5.90;;;;;;;11.57;59.82;99858.09;4484636;32;34275;-86
2023/05/06 02:52:49;;;;;;;15.07;5.95;;;;;;;11.59;59.83;99862.38;4486640;32;20116;-86
2023/05/06 02:55:15;;;;;;;11.07;5.97;;;;;;;11.56;59.82;99853.78;4471835;32;20556;-86
2023/05/06 02:57:40;;;;;;;10.43;6.65;;;;;;;11.49;59.82;99857.53;4471876;32;20108;-86
2023/05/06 03:00:06;;;;;;;10.60;6.30;;;;;;;11.46;59.82;99860.25;4471620;32;20156;-87
2023/05/06 03:02:32;;;;;;;12.37;6.37;;;;;;;11.37;59.81;99858.81;4486438;32;20141;-86
2023/05/06 03:04:57;;;;;;;9.95;5.47;;;;;;;11.37;59.82;99859.66;4458941;32;20112;-86
2023/05/06 03:07:23;;;;;;;12.10;6.20;;;;;;;11.36;59.81;99855.34;4485883;32;20702;-86
2023/05/06 03:09:48;;;;;;;9.63;5.90;;;;;;;11.33;59.81;99860.62;4484827;32;20108;-86
2023/05/06 03:12:13;;;;;;;9.93;5.80;;;;;;;11.23;59.81;99861.00;4483977;32;29439;-86
2023/05/06 03:14:39;;;;;;;9.60;6.07;;;;;;;11.23;59.81;99856.63;4471621;32;20105;-86
2023/05/06 03:17:04;;;;;;;10.20;5.97;;;;;;;11.26;59.81;99861.75;4485892;32;20133;-86
2023/05/06 03:19:30;;;;;;;10.00;6.00;;;;;;;11.24;59.81;99854.88;4484933;32;20141;-86
2023/05/06 03:21:56;;;;;;;9.73;6.32;;;;;;;11.25;59.80;99853.97;4484919;32;20131;-86
2023/05/06 03:24:21;;;;;;;7.93;5.47;;;;;;;11.35;59.81;99852.75;4471949;32;20161;-87
2023/05/06 03:26:47;;;;;;;8.10;5.82;;;;;;;11.47;59.83;99859.34;4484850;32;20108;-86
2023/05/06 03:29:14;;;;;;;8.82;6.28;;;;;;;11.44;59.81;99854.22;4471360;32;27392;-86
2023/05/06 03:31:40;;;;;;;10.15;6.07;;;;;;;11.41;59.82;99849.97;4485034;32;20156;-86
2023/05/06 03:34:06;;;;;;;10.30;6.40;;;;;;;11.43;59.82;99842.09;4485102;32;20112;-86
2023/05/06 03:36:31;;;;;;;9.48;6.03;;;;;;;11.36;59.81;99850.13;4486320;32;20136;-86
2023/05/06 03:38:57;;;;;;;8.23;5.93;;;;;;;11.30;59.81;99845.09;4484762;32;20181;-86
2023/05/06 03:41:23;;;;;;;10.10;5.65;;;;;;;11.42;59.82;99837.78;4471648;32;20410;-85
2023/05/06 03:43:48;;;;;;;10.50;6.35;;;;;;;11.39;59.82;99851.78;4458286;32;20699;-86
2023/05/06 03:46:14;;;;;;;8.70;6.18;;;;;;;11.54;59.83;99846.03;4483955;32;30038;-85
2023/05/06 03:48:39;;;;;;;7.97;6.03;;;;;;;11.48;59.82;99843.63;4484727;32;20160;-86
2023/05/06 03:51:04;;;;;;;9.52;5.78;;;;;;;11.47;59.82;99854.97;4471519;32;20164;-86
2023/05/06 03:53:30;;;;;;;9.15;5.93;;;;;;;11.41;59.81;99855.19;4484761;32;20445;-86
2023/05/06 03:55:55;;;;;;;8.13;5.25;;;;;;;11.74;59.83;99854.91;4484616;32;20126;-87
2023/05/06 03:58:21;;;;;;;10.02;5.90;;;;;;;11.55;59.82;99854.69;4484331;32;20143;-86
2023/05/06 04:00:46;;;;;;;8.80;5.82;;;;;;;11.51;59.82;99853.97;4471391;32;20140;-86
2023/05/06 04:03:11;;;;;;;9.70;6.30;;;;;;;11.58;59.82;99862.41;4484037;32;20096;-86
2023/05/06 04:05:37;;;;;;;10.73;5.65;;;;;;;11.62;59.83;99862.28;4471356;32;20143;-86
2023/05/06 04:08:03;;;;;;;10.48;5.35;;;;;;;11.73;59.83;99863.66;4484365;32;20421;-85
2023/05/06 04:10:28;;;;;;;11.30;6.05;;;;;;;11.82;59.83;99866.81;4484506;32;20080;-85
2023/05/06 04:12:53;;;;;;;8.73;5.90;;;;;;;11.89;59.84;99863.09;4485558;32;20127;-85
2023/05/06 04:15:19;;;;;;;9.65;5.65;;;;;;;11.92;59.85;99865.59;4484428;32;20140;-85
2023/05/06 04:17:45;;;;;;;6.87;4.93;;;;;;;12.10;59.85;99866.69;4485523;31;20157;-85
2023/05/06 04:20:10;;;;;;;9.93;5.72;;;;;;;12.12;59.84;99864.87;4483465;32;30270;-85
2023/05/06 04:22:37;;;;;;;11.88;5.65;;;;;;;12.51;59.88;99866.91;4485511;31;20111;-85
2023/05/06 04:25:03;;;;;;;10.88;6.00;;;;;;;12.41;59.87;99873.38;4484522;32;20116;-85
2023/05/06 04:27:30;;;;;;;9.63;5.30;;;;;;;12.50;59.87;99865.19;4487055;31;20160;-86
2023/05/06 04:29:56;;;;;;;8.38;4.95;;;;;;;12.81;59.90;99863.13;4486058;32;20140;-85
2023/05/06 04:32:24;;;;;;;8.48;6.03;;;;;;;12.71;59.88;99867.00;4487355;32;20101;-85
2023/05/06 04:34:50;;;;;;;10.30;6.18;;;;;;;12.62;59.88;99867.34;4487505;31;20096;-86
2023/05/06 04:37:17;;;;;;;7.82;5.35;;;;;;;12.77;59.89;99864.13;4487252;31;20179;-85
2023/05/06 04:39:46;;;;;;;8.15;5.82;;;;;;;13.00;59.90;99878.91;4486135;32;20106;-85
2023/05/06 04:42:15;;;;;;;9.82;6.00;;;;;;;13.11;59.90;99857.59;4487401;31;20123;-85
2023/05/06 04:44:41;;;;;;;9.30;6.35;;;;;;;13.03;59.91;99873.56;4473141;32;20517;-86
2023/05/06 04:47:07;;;;;;;9.10;5.43;;;;;;;13.16;59.91;99866.06;4473063;32;20143;-87
2023/05/06 04:49:32;;;;;;;15.35;6.03;;;;;;;13.40;59.92;99867.72;4487211;32;20176;-86
2023/05/06 04:51:57;;;;;;;8.00;5.62;;;;;;;13.43;59.93;99874.56;4486539;32;31346;-86
2023/05/06 04:54:23;;;;;;;12.05;5.57;;;;;;;13.50;59.93;99878.66;4485664;32;20504;-85
2023/05/06 04:56:48;;;;;;;7.70;5.65;;;;;;;13.61;59.93;99873.81;4472560;32;20128;-86
2023/05/06 04:59:13;;;;;;;7.85;5.30;;;;;;;13.77;59.94;99877.47;4485970;32;20091;-85
2023/05/06 05:01:39;;;;;;;11.43;5.80;;;;;;;13.93;59.95;99882.03;4487255;32;20105;-85
2023/05/06 05:04:04;;;;;;;7.40;5.05;;;;;;;13.97;59.96;99879.25;4485366;32;20136;-85
2023/05/06 05:06:30;;;;;;;8.00;5.30;;;;;;;14.19;59.97;99879.13;4472109;32;30379;-85
2023/05/06 05:08:56;;;;;;;8.27;5.12;;;;;;;14.23;59.97;99883.31;4486949;31;20179;-86
2023/05/06 05:11:21;;;;;;;8.90;6.30;;;;;;;14.31;59.97;99872.50;4487275;31;20108;-86
2023/05/06 05:13:47;;;;;;;9.43;6.07;;;;;;;14.40;59.98;99875.53;4486337;32;32404;-85
2023/05/06 05:16:12;;;;;;;8.95;5.40;;;;;;;14.61;59.99;99871.09;4485504;32;20112;-86
2023/05/06 05:18:38;;;;;;;9.82;6.00;;;;;;;14.77;59.99;99879.13;4485768;32;20148;-86
2023/05/06 05:21:03;;;;;;;7.82;5.75;;;;;;;15.01;60.00;99874.47;4472654;32;20497;-86
2023/05/06 05:23:28;;;;;;;7.97;5.28;;;;;;;15.07;60.01;99870.69;4485237;32;24515;-86
2023/05/06 05:25:54;;;;;;;8.07;5.82;;;;;;;15.30;60.02;99870.44;4471954;32;29949;-86
2023/05/06 05:28:20;;;;;;;11.77;6.47;;;;;;;15.43;60.03;99871.53;4486014;32;20349;-86
2023/05/06 05:30:45;;;;;;;8.52;5.80;;;;;;;15.67;60.04;99871.25;4487214;32;20160;-86
2023/05/06 05:33:11;;;;;;;9.02;5.90;;;;;;;15.69;60.04;99869.41;4485957;32;20124;-85
2023/05/06 05:35:36;;;;;;;12.75;6.05;;;;;;;15.92;60.05;99866.44;4472088;32;20148;-87
2023/05/06 05:38:01;;;;;;;9.23;6.12;;;;;;;16.00;60.07;99861.63;4485712;32;20123;-86
2023/05/06 05:40:27;;;;;;;12.07;8.63;;;;;;;16.17;60.07;99855.50;4485347;32;20265;-86
2023/05/06 05:42:53;;;;;;;8.98;6.40;;;;;;;16.32;60.08;99859.06;4486096;32;27127;-86
2023/05/06 05:45:19;;;;;;;10.55;6.10;;;;;;;16.63;60.10;99861.72;4485090;32;20135;-86
2023/05/06 05:47:45;;;;;;;9.60;6.97;;;;;;;16.86;60.11;99863.13;4486912;31;20122;-86
2023/05/06 05:50:10;;;;;;;10.93;7.57;;;;;;;16.96;60.11;99858.19;4485661;32;20124;-86
2023/05/06 05:52:36;;;;;;;11.32;7.97;;;;;;;17.36;60.13;99854.97;4486609;32;20119;-87
2023/05/06 05:55:01;;;;;;;15.65;6.60;;;;;;;17.65;60.15;99855.87;4472567;32;20153;-87
2023/05/06 05:57:26;;;;;;;9.30;6.62;;;;;;;17.98;60.16;99849.53;4485848;32;33677;-87
2023/05/06 05:59:52;;;;;;;9.52;6.47;;;;;;;18.21;60.17;99846.34;4485203;32;20131;-87
2023/05/06 06:02:17;;;;;;;11.32;7.35;;;;;;;18.46;60.19;99844.84;4485541;32;20135;-89
2023/05/06 06:04:43;;;;;;;9.57;6.30;;;;;;;18.59;60.20;99848.37;4472232;32;20145;-86
2023/05/06 06:07:08;;;;;;;8.50;7.20;;;;;;;18.91;60.21;99838.44;4470533;32;35620;-86
2023/05/06 06:09:34;;;;;;;12.23;7.32;;;;;;;19.17;60.23;99834.13;4472155;32;20136;-86
2023/05/06 06:12:00;;;;;;;9.93;7.05;;;;;;;19.40;60.24;99829.91;4485425;32;20126;-86
2023/05/06 06:14:26;;;;;;;9.68;6.62;;;;;;;19.52;60.25;99835.22;4485334;32;20460;-87
2023/05/06 06:16:51;;;;;;;11.48;7.07;;;;;;;19.79;60.27;99831.69;4485058;32;20156;-88
2023/05/06 06:19:17;;;;;;;10.45;8.02;;;;;;;19.74;60.26;99832.00;4485229;32;20120;-89
2023/05/06 06:21:42;;;;;;;10.20;6.50;;;;;;;19.79;60.27;99834.34;4485354;32;20174;-89
2023/05/06 06:24:07;;;;;;;16.23;7.55;;;;;;;19.97;60.27;99829.59;4485357;32;20133;-89
2023/05/06 06:26:33;;;;;;;12.00;7.75;;;;;;;19.81;60.26;99829.78;4471396;32;30589;-89
2023/05/06 06:28:58;;;;;;;10.52;7.40;;;;;;;20.04;60.28;99830.84;4471708;32;24901;-87
2023/05/06 06:31:24;;;;;;;12.32;7.75;;;;;;;20.16;60.29;99827.34;4485498;32;20132;-85
2023/05/06 06:33:49;;;;;;;13.10;7.30;;;;;;;20.33;60.30;99826.97;4484770;32;25021;-86
2023/05/06 06:36:14;;;;;;;10.35;7.85;;;;;;;20.52;60.30;99835.31;4472567;32;20128;-86
2023/05/06 06:38:40;;;;;;;10.68;6.93;;;;;;;20.59;60.30;99825.19;4484693;32;21146;-87
2023/05/06 06:41:05;;;;;;;9.85;7.07;;;;;;;21.00;60.32;99827.44;4485208;32;20133;-88
2023/05/06 06:43:31;;;;;;;21.00;6.75;;;;;;;21.26;60.34;99822.88;4484438;32;28663;-88
2023/05/06 06:45:56;;;;;;;11.65;7.05;;;;;;;21.44;60.35;99818.84;4484909;32;20356;-87
2023/05/06 06:48:21;;;;;;;10.40;6.82;;;;;;;21.78;60.36;99812.78;4483751;32;20202;-87
2023/05/06 06:50:47;;;;;;;12.82;6.50;;;;;;;21.95;60.38;99814.94;4484624;32;20104;-87
2023/05/06 06:53:12;;;;;;;10.25;7.03;;;;;;;22.14;60.39;99819.69;4483988;32;28958;-87
2023/05/06 06:55:38;;;;;;;8.35;6.25;;;;;;;22.41;60.41;99811.34;4486028;32;20116;-86
2023/05/06 06:58:03;;;;;;;8.32;6.82;;;;;;;22.66;60.41;99809.25;4484657;32;20108;-84
2023/05/06 07:00:29;;;;;;;14.23;7.57;;;;;;;22.86;60.42;99805.00;4486101;32;20481;-87
2023/05/06 07:02:54;;;;;;;12.10;6.95;;;;;;;22.95;60.42;99811.37;4484621;32;20461;-85
2023/05/06 07:05:19;;;;;;;12.55;7.00;;;;;;;23.14;60.44;99805.38;4483919;32;33631;-89
2023/05/06 07:07:45;;;;;;;9.38;6.32;;;;;;;23.28;60.45;99813.03;4471715;32;20144;-86
2023/05/06 07:10:10;;;;;;;11.75;6.80;;;;;;;23.42;60.45;99809.22;4471637;32;20441;-87
2023/05/06 07:12:36;;;;;;;9.50;6.30;;;;;;;23.55;60.46;99807.22;4484795;32;20127;-87
2023/05/06 07:15:05;;;;;;;12.52;7.28;;;;;;;23.65;60.46;99804.63;4471492;32;20388;-85
2023/05/06 07:17:31;;;;;;;9.95;6.78;;;;;;;23.60;60.46;99817.47;4471959;32;20104;-86
2023/05/06 07:19:56;;;;;;;8.00;6.55;;;;;;;23.66;60.46;99811.63;4484755;32;20104;-88
2023/05/06 07:22:22;;;;;;;10.27;7.97;;;;;;;23.65;60.46;99815.25;4469362;32;25890;-86
2023/05/06 07:24:47;;;;;;;10.65;7.37;;;;;;;23.78;60.47;99815.91;4458294;32;20148;-87
2023/05/06 07:27:13;;;;;;;10.63;7.53;;;;;;;23.74;60.46;99819.81;4483176;32;20131;-89
2023/05/06 07:29:38;;;;;;;8.73;6.35;;;;;;;23.90;60.48;99814.88;4484775;32;20139;-87
2023/05/06 07:32:03;;;;;;;11.85;7.25;;;;;;;24.04;60.48;99814.50;4470607;32;35819;-88
2023/05/06 07:34:29;;;;;;;11.75;7.47;;;;;;;24.19;60.49;99818.50;4471554;32;20136;-87
2023/05/06 07:36:55;;;;;;;11.57;7.47;;;;;;;24.22;60.50;99811.22;4471648;32;20489;-87
2023/05/06 07:39:20;;;;;;;14.07;6.15;;;;;;;24.25;60.50;99814.44;4484930;32;20153;-87
2023/05/06 07:41:46;;;;;;;10.88;6.47;;;;;;;24.15;60.50;99816.25;4458282;32;20186;-88
2023/05/06 07:44:11;;;;;;;9.65;6.95;;;;;;;24.32;60.50;99809.47;4471608;32;20108;-88
2023/05/06 07:46:37;;;;;;;10.23;7.53;;;;;;;24.35;60.50;99810.03;4471675;32;20418;-87
2023/05/06 07:49:02;;;;;;;11.60;7.32;;;;;;;24.56;60.51;99817.09;4471661;32;20440;-88
2023/05/06 07:51:28;;;;;;;8.88;6.53;;;;;;;24.50;60.51;99813.16;4485357;32;27145;-87
2023/05/06 07:53:53;;;;;;;10.75;6.60;;;;;;;24.51;60.51;99811.34;4484865;32;20398;-87
2023/05/06 07:56:18;;;;;;;8.57;6.78;;;;;;;24.73;60.52;99808.44;4483996;32;33913;-87
2023/05/06 07:58:44;;;;;;;12.35;7.50;;;;;;;24.90;60.53;99801.59;4484190;32;26302;-87
2023/05/06 08:01:09;;;;;;;9.15;6.70;;;;;;;25.06;60.53;99810.72;4471028;32;23244;-87
2023/05/06 08:03:35;;;;;;;12.07;7.57;;;;;;;25.11;60.55;99807.69;4484487;32;20143;-87
2023/05/06 08:06:00;;;;;;;17.27;8.10;;;;;;;25.38;60.55;99809.63;4485910;32;20148;-87
2023/05/06 08:08:28;;;;;;;12.05;7.60;;;;;;;25.04;60.54;99811.84;4485897;31;20096;-87
2023/05/06 08:10:54;;;;;;;12.13;7.25;;;;;;;25.16;60.55;99810.75;4484805;32;20088;-88
2023/05/06 08:13:20;;;;;;;11.25;7.75;;;;;;;25.16;60.55;99818.75;4471502;32;20093;-87
2023/05/06 08:15:45;;;;;;;10.27;7.93;;;;;;;25.21;60.55;99816.50;4484358;32;20142;-87
2023/05/06 08:18:11;;;;;;;12.65;7.32;;;;;;;25.40;60.57;99818.31;4471235;32;20104;-88
2023/05/06 08:20:36;;;;;;;11.93;9.18;;;;;;;25.34;60.56;99819.72;4470805;32;20420;-87
2023/05/06 08:23:02;;;;;;;12.48;9.48;;;;;;;25.49;60.57;99821.94;4471051;32;20175;-87
2023/05/06 08:25:27;;;;;;;12.20;8.80;;;;;;;25.65;60.58;99811.53;4483970;32;20644;-88
2023/05/06 08:27:52;;;;;;;11.18;9.02;;;;;;;25.73;60.58;99806.34;4471126;32;20497;-87
2023/05/06 08:30:18;;;;;;;14.23;10.63;;;;;;;25.93;60.60;99813.31;4470919;32;20193;-88
2023/05/06 08:32:43;;;;;;;12.50;9.88;;;;;;;26.09;60.59;99811.84;4470545;32;24048;-88
2023/05/06 08:35:09;;;;;;;13.40;9.52;;;;;;;26.28;60.61;99812.63;4483695;32;20148;-87
2023/05/06 08:37:34;;;;;;;14.02;9.48;;;;;;;26.56;60.63;99813.47;4483945;32;20126;-88
2023/05/06 08:39:59;;;;;;;12.07;9.10;;;;;;;26.67;60.63;99803.56;4470611;32;20392;-87
2023/05/06 08:42:25;;;;;;;10.98;8.45;;;;;;;26.86;60.63;99806.09;4470902;32;20109;-88
2023/05/06 08:44:51;;;;;;;15.18;8.27;;;;;;;27.11;60.64;99799.19;4457715;32;20415;-88
2023/05/06 08:47:20;;;;;;;10.77;8.05;;;;;;;27.35;60.67;99798.53;4483827;32;20100;-88
2023/05/06 08:49:46;;;;;;;9.30;7.20;;;;;;;27.33;60.66;99806.72;4484149;32;20115;-88
2023/05/06 08:52:11;;;;;;;9.73;7.50;;;;;;;27.32;60.66;99798.84;4485314;31;20088;-88
2023/05/06 08:54:37;;;;;;;9.40;6.03;;;;;;;27.40;60.66;99799.75;4470513;32;20128;-88
2023/05/06 08:57:04;;;;;;;8.50;6.57;;;;;;;27.57;60.67;99802.56;4484930;32;20100;-88
2023/05/06 08:59:31;;;;;;;8.43;6.22;;;;;;;27.63;60.68;99797.44;4470714;32;20468;-87
2023/05/06 09:01:58;;;;;;;9.73;5.93;;;;;;;27.64;60.68;99796.44;4484906;31;20110;-87
2023/05/06 09:04:23;;;;;;;9.35;5.75;;;;;;;27.75;60.69;99801.53;4483489;32;20188;-87
2023/05/06 09:06:49;;;;;;;7.40;5.75;;;;;;;27.71;60.68;99799.34;4483242;32;20112;-87
2023/05/06 09:09:14;;;;;;;10.82;5.30;;;;;;;27.95;60.69;99786.13;4483172;32;20825;-87
2023/05/06 09:11:40;;;;;;;9.90;5.30;;;;;;;28.14;60.71;99787.69;4471554;32;20092;-88
2023/05/06 09:14:12;;;;;;;7.95;5.90;;;;;;;28.24;60.72;99793.75;4472700;32;20124;-87
2023/05/06 09:16:38;;;;;;;7.78;6.12;;;;;;;28.32;60.71;99791.12;4472819;32;20720;-87
2023/05/06 09:19:04;;;;;;;8.75;5.28;;;;;;;28.38;60.72;99786.97;4472801;32;20419;-87
2023/05/06 09:21:34;;;;;;;6.85;5.30;;;;;;;28.66;60.73;99785.72;4473320;32;20084;-88
2023/05/06 09:23:59;;;;;;;7.32;5.90;;;;;;;28.64;60.73;99778.88;4472694;32;20112;-88
2023/05/06 09:26:27;;;;;;;6.55;4.97;;;;;;;28.47;60.72;99782.50;4486084;32;20126;-88
2023/05/06 09:28:52;;;;;;;11.52;6.55;;;;;;;28.70;60.73;99783.56;4472628;32;20088;-88
2023/05/06 09:31:17;;;;;;;6.55;4.28;;;;;;;28.42;60.72;99781.16;4485487;32;20145;-88
2023/05/06 09:33:43;;;;;;;5.47;4.62;;;;;;;28.80;60.74;99773.50;4485387;32;20187;-88
2023/05/06 09:36:12;;;;;;;6.20;5.10;;;;;;;29.09;60.75;99780.25;4485615;32;20168;-88
2023/05/06 09:38:38;;;;;;;7.60;4.47;;;;;;;29.35;60.77;99775.59;4485857;32;20114;-87
2023/05/06 09:41:05;;;;;;;6.12;4.80;;;;;;;29.37;60.77;99767.38;4472686;32;20116;-88
2023/05/06 09:43:30;;;;;;;4.80;4.07;;;;;;;29.06;60.75;99770.72;4472553;32;20145;-87
2023/05/06 09:45:56;;;;;;;11.70;5.40;;;;;;;29.26;60.77;99768.53;4485479;32;20145;-87
2023/05/06 09:48:22;;;;;;;8.05;4.10;;;;;;;29.21;60.76;99766.38;4485718;32;20096;-87
2023/05/06 09:50:48;;;;;;;5.30;3.85;;;;;;;29.31;60.77;99764.34;4471570;32;31204;-89
2023/05/06 09:53:14;;;;;;;8.30;4.57;;;;;;;29.69;60.78;99755.78;4472819;32;20771;-88
2023/05/06 09:55:39;;;;;;;8.15;4.85;;;;;;;30.05;60.81;99750.81;4485774;32;20148;-87
2023/05/06 09:58:05;;;;;;;4.90;4.07;;;;;;;30.22;60.82;99744.34;4485760;32;20148;-87
2023/05/06 10:00:31;;;;;;;8.25;4.70;;;;;;;30.37;60.82;99736.41;4485787;32;20114;-88
2023/05/06 10:02:56;;;;;;;5.93;4.07;;;;;;;30.25;60.81;99741.31;4459319;32;20135;-88
2023/05/06 10:05:22;;;;;;;4.37;3.10;;;;;;;30.25;60.81;99747.53;4485457;32;20112;-88
2023/05/06 10:07:48;;;;;;;3.53;3.12;;;;;;;30.43;60.81;99741.91;4485186;32;23003;-88
2023/05/06 10:10:13;;;;;;;4.30;3.90;;;;;;;30.52;60.83;99734.59;4459527;32;20096;-88
2023/05/06 10:12:39;;;;;;;7.15;4.05;;;;;;;30.44;60.83;99738.19;4459206;32;20481;-88
2023/05/06 10:15:05;;;;;;;5.25;3.60;;;;;;;30.38;60.82;99746.12;4472482;32;20126;-87
2023/05/06 10:17:31;;;;;;;9.60;3.60;;;;;;;30.14;60.81;99730.97;4485285;32;20362;-88
2023/05/06 10:19:57;;;;;;;5.72;3.03;;;;;;;29.97;60.81;99738.22;4472267;32;20084;-88
2023/05/06 10:22:29;;;;;;;3.60;2.10;;;;;;;29.95;60.79;99732.19;4459401;32;20123;-87
2023/05/06 10:25:29;;;;;;;5.97;3.15;;;;;;;30.04;60.81;99736.53;4486600;32;20097;-88
2023/05/06 10:27:54;;;;;;;4.28;3.08;;;;;;;29.99;60.80;99730.84;4482767;32;20115;-88
2023/05/06 10:30:20;;;;;;;3.42;3.00;;;;;;;29.94;60.79;99726.00;4484554;32;31181;-88
2023/05/06 10:32:45;;;;;;;4.65;3.17;;;;;;;29.90;60.80;99722.00;4472121;32;20153;-87
2023/05/06 10:35:21;;;;;;;5.70;3.22;;;;;;;30.02;60.80;99714.38;4485343;32;20147;-88
2023/05/06 10:37:48;;;;;;;4.10;2.55;;;;;;;29.91;60.80;99712.94;4485360;32;20111;-88
2023/05/06 10:40:13;;;;;;;3.05;2.75;;;;;;;29.90;60.81;99715.78;4472436;32;20114;-89
2023/05/06 10:42:39;;;;;;;6.82;3.05;;;;;;;29.97;60.81;99706.03;4485328;32;20128;-89
2023/05/06 10:45:05;;;;;;;7.93;2.97;;;;;;;30.10;60.81;99706.34;4485686;32;20444;-88
2023/05/06 10:47:57;;;;;;;4.75;2.95;;;;;;;30.25;60.81;99701.88;4486449;31;20110;-86
2023/05/06 10:50:25;;;;;;;5.12;2.85;;;;;;;30.36;60.83;99700.66;4481727;32;20130;-86
2023/05/06 10:52:55;;;;;;;5.80;3.00;;;;;;;30.38;60.82;99698.63;4485345;32;20109;-88
2023/05/06 10:55:24;;;;;;;4.35;3.28;;;;;;;30.32;60.82;99693.12;4485234;32;20144;-88
2023/05/06 10:57:52;;;;;;;3.03;2.70;;;;;;;30.24;60.81;99694.84;4485042;32;20161;-88
2023/05/06 11:00:18;;;;;;;2.97;2.42;;;;;;;30.41;60.83;99692.88;4459278;32;20100;-88
2023/05/06 11:02:43;;;;;;;4.15;2.65;;;;;;;30.63;60.83;99687.75;4485190;32;20151;-89
2023/05/06 11:05:09;;;;;;;3.28;2.80;;;;;;;30.71;60.84;99688.50;4484948;32;20139;-88
2023/05/06 11:07:35;;;;;;;7.57;2.70;;;;;;;30.96;60.85;99683.75;4485075;32;20132;-88
2023/05/06 11:10:04;;;;;;;6.28;3.03;;;;;;;31.06;60.85;99678.12;4472069;32;20162;-88
2023/05/06 11:12:49;;;;;;;4.07;2.50;;;;;;;30.76;60.84;99688.81;4472256;32;20472;-89
2023/05/06 11:15:24;;;;;;;2.97;2.33;;;;;;;31.04;60.85;99680.19;4485795;32;20154;-88
2023/05/06 11:17:51;;;;;;;5.70;2.50;;;;;;;30.55;60.84;99680.56;4486084;32;20093;-89
2023/05/06 11:20:24;;;;;;;4.07;2.80;;;;;;;30.62;60.84;99678.84;4472455;32;20115;-88
2023/05/06 11:22:49;;;;;;;3.60;2.85;;;;;;;30.82;60.84;99680.03;4485271;32;20100;-89
2023/05/06 11:25:38;;;;;;;4.32;2.30;;;;;;;30.86;60.85;99677.81;4471856;32;20384;-86
2023/05/06 11:28:10;;;;;;;5.50;2.50;;;;;;;30.87;60.85;99675.94;4486353;31;20100;-88